sensor_id;sensor_type;location;lat;lon;timestamp;temperature;humidity
11824;DHT22;5969;50.780;7.726;2023-06-19T00:00:53;20.10;99.90
11824;DHT22;5969;50.780;7.726;2023-06-19T00:03:20;20.10;99.90
11824;DHT22;5969;50.780;7.726;2023-06-19T00:05:47;20.10;99.90
11824;DHT22;5969;50.780;7.726;2023-06-19T00:08:13;20.10;99.90
11824;DHT22;5969;50.780;7.726;2023-06-19T00:10:40;20.10;99.90
11824;DHT22;5969;50.780;7.726;2023-06-19T00:13:08;20.00;99.90
11824;DHT22;5969;50.780;7.726;2023-06-19T00:15:35;19.90;99.90
11824;DHT22;5969;50.780;7.726;2023-06-19T00:18:02;19.90;99.90
11824;DHT22;5969;50.780;7.726;2023-06-19T00:20:28;19.80;99.90
11824;DHT22;5969;50.780;7.726;2023-06-19T00:22:55;19.80;99.90
11824;DHT22;5969;50.780;7.726;2023-06-19T00:25:22;19.80;99.90
11824;DHT22;5969;50.780;7.726;2023-06-19T00:27:49;19.80;99.90
11824;DHT22;5969;50.780;7.726;2023-06-19T00:30:17;19.80;99.90
11824;DHT22;5969;50.780;7.726;2023-06-19T00:32:43;19.90;99.90
11824;DHT22;5969;50.780;7.726;2023-06-19T00:35:16;19.80;99.90
11824;DHT22;5969;50.780;7.726;2023-06-19T00:37:43;19.80;99.90
11824;DHT22;5969;50.780;7.726;2023-06-19T00:40:28;19.80;99.90
11824;DHT22;5969;50.780;7.726;2023-06-19T00:42:55;19.80;99.90
11824;DHT22;5969;50.780;7.726;2023-06-19T00:45:24;19.80;99.90
11824;DHT22;5969;50.780;7.726;2023-06-19T00:47:51;19.80;99.90
11824;DHT22;5969;50.780;7.726;2023-06-19T00:50:17;19.80;99.90
11824;DHT22;5969;50.780;7.726;2023-06-19T00:52:44;19.80;99.90
11824;DHT22;5969;50.780;7.726;2023-06-19T00:55:13;19.80;99.90
11824;DHT22;5969;50.780;7.726;2023-06-19T00:57:41;19.80;99.90
11824;DHT22;5969;50.780;7.726;2023-06-19T01:00:11;19.80;99.90
11824;DHT22;5969;50.780;7.726;2023-06-19T01:02:39;19.80;99.70
11824;DHT22;5969;50.780;7.726;2023-06-19T01:05:06;19.80;99.90
11824;DHT22;5969;50.780;7.726;2023-06-19T01:07:45;19.80;99.90
11824;DHT22;5969;50.780;7.726;2023-06-19T01:10:16;19.70;99.90
11824;DHT22;5969;50.780;7.726;2023-06-19T01:12:49;19.60;99.90
11824;DHT22;5969;50.780;7.726;2023-06-19T01:15:16;19.50;99.90
11824;DHT22;5969;50.780;7.726;2023-06-19T01:17:46;19.30;99.90
11824;DHT22;5969;50.780;7.726;2023-06-19T01:20:13;19.10;99.90
11824;DHT22;5969;50.780;7.726;2023-06-19T01:22:42;18.90;99.90
11824;DHT22;5969;50.780;7.726;2023-06-19T01:25:09;18.90;99.90
11824;DHT22;5969;50.780;7.726;2023-06-19T01:27:36;18.90;99.90
11824;DHT22;5969;50.780;7.726;2023-06-19T01:30:04;19.00;99.90
11824;DHT22;5969;50.780;7.726;2023-06-19T01:32:34;19.00;99.90
11824;DHT22;5969;50.780;7.726;2023-06-19T01:35:02;19.10;99.90
11824;DHT22;5969;50.780;7.726;2023-06-19T01:37:30;19.20;99.90
11824;DHT22;5969;50.780;7.726;2023-06-19T01:40:02;19.30;99.90
11824;DHT22;5969;50.780;7.726;2023-06-19T01:42:32;19.40;99.90
11824;DHT22;5969;50.780;7.726;2023-06-19T01:45:00;19.50;99.90
11824;DHT22;5969;50.780;7.726;2023-06-19T01:47:28;19.60;99.30
11824;DHT22;5969;50.780;7.726;2023-06-19T01:49:55;19.80;98.70
11824;DHT22;5969;50.780;7.726;2023-06-19T01:52:25;19.90;98.40
11824;DHT22;5969;50.780;7.726;2023-06-19T01:54:52;20.00;97.10
11824;DHT22;5969;50.780;7.726;2023-06-19T01:57:20;20.00;96.80
11824;DHT22;5969;50.780;7.726;2023-06-19T01:59:47;20.20;95.80
11824;DHT22;5969;50.780;7.726;2023-06-19T02:02:13;20.30;94.90
11824;DHT22;5969;50.780;7.726;2023-06-19T02:04:40;20.30;95.00
11824;DHT22;5969;50.780;7.726;2023-06-19T02:07:07;20.30;94.40
11824;DHT22;5969;50.780;7.726;2023-06-19T02:09:34;20.30;94.60
11824;DHT22;5969;50.780;7.726;2023-06-19T02:12:00;20.30;94.80
11824;DHT22;5969;50.780;7.726;2023-06-19T02:14:29;20.30;94.30
11824;DHT22;5969;50.780;7.726;2023-06-19T02:16:55;20.40;94.40
11824;DHT22;5969;50.780;7.726;2023-06-19T02:19:22;20.30;94.20
11824;DHT22;5969;50.780;7.726;2023-06-19T02:21:49;20.30;94.10
11824;DHT22;5969;50.780;7.726;2023-06-19T02:24:16;20.20;94.50
11824;DHT22;5969;50.780;7.726;2023-06-19T02:26:42;20.20;97.00
11824;DHT22;5969;50.780;7.726;2023-06-19T02:29:09;20.20;99.40
11824;DHT22;5969;50.780;7.726;2023-06-19T02:31:37;20.00;99.90
11824;DHT22;5969;50.780;7.726;2023-06-19T02:34:04;19.90;99.90
11824;DHT22;5969;50.780;7.726;2023-06-19T02:36:31;19.80;99.90
11824;DHT22;5969;50.780;7.726;2023-06-19T02:38:58;19.70;99.90
11824;DHT22;5969;50.780;7.726;2023-06-19T02:41:25;19.70;99.90
11824;DHT22;5969;50.780;7.726;2023-06-19T02:43:52;19.70;99.10
11824;DHT22;5969;50.780;7.726;2023-06-19T02:46:19;19.70;98.60
11824;DHT22;5969;50.780;7.726;2023-06-19T02:48:47;19.80;98.80
11824;DHT22;5969;50.780;7.726;2023-06-19T02:51:13;19.80;99.90
11824;DHT22;5969;50.780;7.726;2023-06-19T02:53:40;19.60;99.90
11824;DHT22;5969;50.780;7.726;2023-06-19T02:56:09;19.60;99.90
11824;DHT22;5969;50.780;7.726;2023-06-19T02:58:36;19.50;99.90
11824;DHT22;5969;50.780;7.726;2023-06-19T03:01:04;19.40;99.90
11824;DHT22;5969;50.780;7.726;2023-06-19T03:03:32;19.40;99.90
11824;DHT22;5969;50.780;7.726;2023-06-19T03:06:04;19.40;99.90
11824;DHT22;5969;50.780;7.726;2023-06-19T03:08:31;19.50;99.90
11824;DHT22;5969;50.780;7.726;2023-06-19T03:10:58;19.50;99.90
11824;DHT22;5969;50.780;7.726;2023-06-19T03:13:25;19.60;99.30
11824;DHT22;5969;50.780;7.726;2023-06-19T03:15:51;19.70;98.70
11824;DHT22;5969;50.780;7.726;2023-06-19T03:18:20;19.80;98.80
11824;DHT22;5969;50.780;7.726;2023-06-19T03:20:48;19.80;99.90
11824;DHT22;5969;50.780;7.726;2023-06-19T03:23:16;19.70;99.90
11824;DHT22;5969;50.780;7.726;2023-06-19T03:25:43;19.60;99.90
11824;DHT22;5969;50.780;7.726;2023-06-19T03:28:09;19.50;99.90
11824;DHT22;5969;50.780;7.726;2023-06-19T03:30:36;19.40;99.30
11824;DHT22;5969;50.780;7.726;2023-06-19T03:33:03;19.60;98.50
11824;DHT22;5969;50.780;7.726;2023-06-19T03:35:30;19.70;97.30
11824;DHT22;5969;50.780;7.726;2023-06-19T03:37:57;19.70;97.20
11824;DHT22;5969;50.780;7.726;2023-06-19T03:40:25;19.80;99.20
11824;DHT22;5969;50.780;7.726;2023-06-19T03:42:51;19.70;99.90
11824;DHT22;5969;50.780;7.726;2023-06-19T03:45:18;19.50;99.90
11824;DHT22;5969;50.780;7.726;2023-06-19T03:47:45;19.40;99.90
11824;DHT22;5969;50.780;7.726;2023-06-19T03:50:12;19.30;99.90
11824;DHT22;5969;50.780;7.726;2023-06-19T03:52:46;19.30;99.90
11824;DHT22;5969;50.780;7.726;2023-06-19T03:55:12;19.40;99.90
11824;DHT22;5969;50.780;7.726;2023-06-19T03:57:40;19.50;98.70
11824;DHT22;5969;50.780;7.726;2023-06-19T04:00:08;19.60;99.90
11824;DHT22;5969;50.780;7.726;2023-06-19T04:02:38;19.70;98.50
11824;DHT22;5969;50.780;7.726;2023-06-19T04:05:05;19.80;98.00
11824;DHT22;5969;50.780;7.726;2023-06-19T04:07:32;19.90;97.60
11824;DHT22;5969;50.780;7.726;2023-06-19T04:09:59;20.00;97.50
11824;DHT22;5969;50.780;7.726;2023-06-19T04:12:26;20.10;97.10
11824;DHT22;5969;50.780;7.726;2023-06-19T04:14:54;20.30;96.80
11824;DHT22;5969;50.780;7.726;2023-06-19T04:17:21;20.30;96.80
11824;DHT22;5969;50.780;7.726;2023-06-19T04:19:48;20.40;96.70
11824;DHT22;5969;50.780;7.726;2023-06-19T04:22:14;20.50;96.60
11824;DHT22;5969;50.780;7.726;2023-06-19T04:24:41;20.50;96.90
11824;DHT22;5969;50.780;7.726;2023-06-19T04:27:08;20.60;96.40
11824;DHT22;5969;50.780;7.726;2023-06-19T04:29:35;20.60;96.50
11824;DHT22;5969;50.780;7.726;2023-06-19T04:32:03;20.70;96.30
11824;DHT22;5969;50.780;7.726;2023-06-19T04:34:37;20.70;96.40
11824;DHT22;5969;50.780;7.726;2023-06-19T04:37:04;20.70;96.40
11824;DHT22;5969;50.780;7.726;2023-06-19T04:39:31;20.70;96.40
11824;DHT22;5969;50.780;7.726;2023-06-19T04:41:58;20.70;96.50
11824;DHT22;5969;50.780;7.726;2023-06-19T04:44:25;20.80;96.50
11824;DHT22;5969;50.780;7.726;2023-06-19T04:46:52;20.70;96.60
11824;DHT22;5969;50.780;7.726;2023-06-19T04:49:28;20.70;96.60
11824;DHT22;5969;50.780;7.726;2023-06-19T04:51:56;20.70;96.80
11824;DHT22;5969;50.780;7.726;2023-06-19T04:54:24;20.70;96.80
11824;DHT22;5969;50.780;7.726;2023-06-19T04:56:51;20.60;96.80
11824;DHT22;5969;50.780;7.726;2023-06-19T04:59:18;20.60;97.00
11824;DHT22;5969;50.780;7.726;2023-06-19T05:01:48;20.50;97.00
11824;DHT22;5969;50.780;7.726;2023-06-19T05:04:15;20.60;97.10
11824;DHT22;5969;50.780;7.726;2023-06-19T05:06:43;20.40;97.20
11824;DHT22;5969;50.780;7.726;2023-06-19T05:09:10;20.50;97.10
11824;DHT22;5969;50.780;7.726;2023-06-19T05:11:36;20.40;97.40
11824;DHT22;5969;50.780;7.726;2023-06-19T05:14:03;20.40;97.40
11824;DHT22;5969;50.780;7.726;2023-06-19T05:16:33;20.50;97.30
11824;DHT22;5969;50.780;7.726;2023-06-19T05:19:00;20.50;97.40
11824;DHT22;5969;50.780;7.726;2023-06-19T05:21:27;20.50;97.50
11824;DHT22;5969;50.780;7.726;2023-06-19T05:23:55;20.50;97.60
11824;DHT22;5969;50.780;7.726;2023-06-19T05:26:22;20.60;98.10
11824;DHT22;5969;50.780;7.726;2023-06-19T05:28:49;20.70;98.70
11824;DHT22;5969;50.780;7.726;2023-06-19T05:31:16;20.70;99.00
11824;DHT22;5969;50.780;7.726;2023-06-19T05:33:44;20.60;99.40
11824;DHT22;5969;50.780;7.726;2023-06-19T05:36:14;20.60;99.40
11824;DHT22;5969;50.780;7.726;2023-06-19T05:38:43;20.60;99.10
11824;DHT22;5969;50.780;7.726;2023-06-19T05:41:13;20.70;99.00
11824;DHT22;5969;50.780;7.726;2023-06-19T05:43:41;20.70;99.10
11824;DHT22;5969;50.780;7.726;2023-06-19T05:46:08;20.70;98.60
11824;DHT22;5969;50.780;7.726;2023-06-19T05:48:35;20.60;98.80
11824;DHT22;5969;50.780;7.726;2023-06-19T05:51:02;20.50;99.10
11824;DHT22;5969;50.780;7.726;2023-06-19T05:53:29;20.60;99.00
11824;DHT22;5969;50.780;7.726;2023-06-19T05:55:56;20.50;99.10
11824;DHT22;5969;50.780;7.726;2023-06-19T05:58:25;20.50;99.00
11824;DHT22;5969;50.780;7.726;2023-06-19T06:00:51;20.50;99.10
11824;DHT22;5969;50.780;7.726;2023-06-19T06:03:23;20.60;99.40
11824;DHT22;5969;50.780;7.726;2023-06-19T06:05:49;20.50;99.30
11824;DHT22;5969;50.780;7.726;2023-06-19T06:08:16;20.60;99.30
11824;DHT22;5969;50.780;7.726;2023-06-19T06:10:43;20.60;99.60
11824;DHT22;5969;50.780;7.726;2023-06-19T06:13:10;20.60;99.80
11824;DHT22;5969;50.780;7.726;2023-06-19T06:15:38;20.30;99.80
11824;DHT22;5969;50.780;7.726;2023-06-19T06:18:05;20.20;99.90
11824;DHT22;5969;50.780;7.726;2023-06-19T06:20:32;20.30;99.90
11824;DHT22;5969;50.780;7.726;2023-06-19T06:22:59;20.40;99.90
11824;DHT22;5969;50.780;7.726;2023-06-19T06:25:26;20.60;99.90
11824;DHT22;5969;50.780;7.726;2023-06-19T06:27:53;20.60;99.90
11824;DHT22;5969;50.780;7.726;2023-06-19T06:30:19;20.60;99.90
11824;DHT22;5969;50.780;7.726;2023-06-19T06:32:51;20.50;99.90
11824;DHT22;5969;50.780;7.726;2023-06-19T06:35:18;20.50;99.90
11824;DHT22;5969;50.780;7.726;2023-06-19T06:37:44;20.50;99.90
11824;DHT22;5969;50.780;7.726;2023-06-19T06:40:12;20.60;99.90
11824;DHT22;5969;50.780;7.726;2023-06-19T06:42:39;20.80;99.90
11824;DHT22;5969;50.780;7.726;2023-06-19T06:45:07;20.80;99.90
11824;DHT22;5969;50.780;7.726;2023-06-19T06:47:34;21.00;99.80
11824;DHT22;5969;50.780;7.726;2023-06-19T06:50:03;21.10;99.60
11824;DHT22;5969;50.780;7.726;2023-06-19T06:52:30;21.10;99.80
11824;DHT22;5969;50.780;7.726;2023-06-19T06:54:57;21.10;99.60
11824;DHT22;5969;50.780;7.726;2023-06-19T06:57:24;21.30;99.50
11824;DHT22;5969;50.780;7.726;2023-06-19T06:59:51;21.40;98.90
11824;DHT22;5969;50.780;7.726;2023-06-19T07:02:18;21.40;99.30
11824;DHT22;5969;50.780;7.726;2023-06-19T07:04:45;21.30;98.90
11824;DHT22;5969;50.780;7.726;2023-06-19T07:07:13;21.50;99.40
11824;DHT22;5969;50.780;7.726;2023-06-19T07:09:40;21.50;99.40
11824;DHT22;5969;50.780;7.726;2023-06-19T07:12:08;21.40;99.40
11824;DHT22;5969;50.780;7.726;2023-06-19T07:14:34;21.60;99.30
11824;DHT22;5969;50.780;7.726;2023-06-19T07:17:01;21.70;99.00
11824;DHT22;5969;50.780;7.726;2023-06-19T07:19:28;21.80;98.60
11824;DHT22;5969;50.780;7.726;2023-06-19T07:21:55;22.00;98.30
11824;DHT22;5969;50.780;7.726;2023-06-19T07:24:23;22.00;98.10
11824;DHT22;5969;50.780;7.726;2023-06-19T07:26:50;21.60;97.50
11824;DHT22;5969;50.780;7.726;2023-06-19T07:29:17;21.70;97.70
11824;DHT22;5969;50.780;7.726;2023-06-19T07:31:43;21.70;98.10
11824;DHT22;5969;50.780;7.726;2023-06-19T07:34:10;22.00;98.30
11824;DHT22;5969;50.780;7.726;2023-06-19T07:36:37;22.10;97.70
11824;DHT22;5969;50.780;7.726;2023-06-19T07:39:04;22.20;97.60
11824;DHT22;5969;50.780;7.726;2023-06-19T07:41:32;22.50;97.50
11824;DHT22;5969;50.780;7.726;2023-06-19T07:43:59;22.50;97.50
11824;DHT22;5969;50.780;7.726;2023-06-19T07:46:25;22.40;97.60
11824;DHT22;5969;50.780;7.726;2023-06-19T07:48:52;22.60;97.00
11824;DHT22;5969;50.780;7.726;2023-06-19T07:51:20;22.90;96.50
11824;DHT22;5969;50.780;7.726;2023-06-19T07:53:47;22.70;96.80
11824;DHT22;5969;50.780;7.726;2023-06-19T07:56:19;22.50;96.90
11824;DHT22;5969;50.780;7.726;2023-06-19T07:58:50;22.70;96.70
11824;DHT22;5969;50.780;7.726;2023-06-19T08:01:17;22.60;96.70
11824;DHT22;5969;50.780;7.726;2023-06-19T08:03:45;22.70;96.80
11824;DHT22;5969;50.780;7.726;2023-06-19T08:06:12;22.90;96.60
11824;DHT22;5969;50.780;7.726;2023-06-19T08:08:38;22.90;96.60
11824;DHT22;5969;50.780;7.726;2023-06-19T08:11:05;23.10;97.00
11824;DHT22;5969;50.780;7.726;2023-06-19T08:13:32;23.30;96.50
11824;DHT22;5969;50.780;7.726;2023-06-19T08:16:00;23.10;96.40
11824;DHT22;5969;50.780;7.726;2023-06-19T08:18:27;23.20;95.90
11824;DHT22;5969;50.780;7.726;2023-06-19T08:20:54;23.40;96.00
11824;DHT22;5969;50.780;7.726;2023-06-19T08:23:20;23.40;95.60
11824;DHT22;5969;50.780;7.726;2023-06-19T08:25:47;23.40;95.90
11824;DHT22;5969;50.780;7.726;2023-06-19T08:28:14;23.50;95.50
11824;DHT22;5969;50.780;7.726;2023-06-19T08:30:41;23.50;95.40
11824;DHT22;5969;50.780;7.726;2023-06-19T08:33:09;23.50;95.60
11824;DHT22;5969;50.780;7.726;2023-06-19T08:35:36;23.30;95.30
11824;DHT22;5969;50.780;7.726;2023-06-19T08:38:02;23.10;95.40
11824;DHT22;5969;50.780;7.726;2023-06-19T08:40:29;22.80;95.90
11824;DHT22;5969;50.780;7.726;2023-06-19T08:42:56;23.20;95.60
11824;DHT22;5969;50.780;7.726;2023-06-19T08:45:23;23.40;95.00
11824;DHT22;5969;50.780;7.726;2023-06-19T08:47:50;23.50;94.70
11824;DHT22;5969;50.780;7.726;2023-06-19T08:50:25;23.70;94.40
11824;DHT22;5969;50.780;7.726;2023-06-19T08:52:52;23.80;94.70
11824;DHT22;5969;50.780;7.726;2023-06-19T08:55:19;23.90;94.60
11824;DHT22;5969;50.780;7.726;2023-06-19T08:57:48;24.10;94.60
11824;DHT22;5969;50.780;7.726;2023-06-19T09:00:23;24.20;94.40
11824;DHT22;5969;50.780;7.726;2023-06-19T09:02:51;24.10;94.40
11824;DHT22;5969;50.780;7.726;2023-06-19T09:05:18;23.60;94.60
11824;DHT22;5969;50.780;7.726;2023-06-19T09:07:55;23.60;94.40
11824;DHT22;5969;50.780;7.726;2023-06-19T09:10:22;23.70;94.60
11824;DHT22;5969;50.780;7.726;2023-06-19T09:12:57;23.50;94.70
11824;DHT22;5969;50.780;7.726;2023-06-19T09:15:30;23.90;94.80
11824;DHT22;5969;50.780;7.726;2023-06-19T09:18:05;23.90;93.80
11824;DHT22;5969;50.780;7.726;2023-06-19T09:20:33;23.70;94.30
11824;DHT22;5969;50.780;7.726;2023-06-19T09:23:03;24.10;94.70
11824;DHT22;5969;50.780;7.726;2023-06-19T09:25:29;24.60;93.80
11824;DHT22;5969;50.780;7.726;2023-06-19T09:27:57;24.50;93.10
11824;DHT22;5969;50.780;7.726;2023-06-19T09:30:23;24.50;93.50
11824;DHT22;5969;50.780;7.726;2023-06-19T09:32:53;24.30;93.50
11824;DHT22;5969;50.780;7.726;2023-06-19T09:35:20;24.30;94.00
11824;DHT22;5969;50.780;7.726;2023-06-19T09:37:47;24.40;93.40
11824;DHT22;5969;50.780;7.726;2023-06-19T09:40:17;24.20;94.20
11824;DHT22;5969;50.780;7.726;2023-06-19T09:42:44;24.50;93.50
11824;DHT22;5969;50.780;7.726;2023-06-19T09:45:12;24.70;93.40
11824;DHT22;5969;50.780;7.726;2023-06-19T09:47:43;25.10;92.80
11824;DHT22;5969;50.780;7.726;2023-06-19T09:50:12;24.90;93.50
11824;DHT22;5969;50.780;7.726;2023-06-19T09:52:40;25.00;93.20
11824;DHT22;5969;50.780;7.726;2023-06-19T09:55:08;25.00;93.40
11824;DHT22;5969;50.780;7.726;2023-06-19T09:57:40;24.90;93.40
11824;DHT22;5969;50.780;7.726;2023-06-19T10:00:09;24.70;93.90
11824;DHT22;5969;50.780;7.726;2023-06-19T10:02:41;24.40;93.10
11824;DHT22;5969;50.780;7.726;2023-06-19T10:05:12;24.30;92.80
11824;DHT22;5969;50.780;7.726;2023-06-19T10:07:42;24.60;93.10
11824;DHT22;5969;50.780;7.726;2023-06-19T10:10:11;24.50;93.10
11824;DHT22;5969;50.780;7.726;2023-06-19T10:12:45;25.00;93.60
11824;DHT22;5969;50.780;7.726;2023-06-19T10:15:16;25.50;92.70
11824;DHT22;5969;50.780;7.726;2023-06-19T10:17:47;25.50;92.90
11824;DHT22;5969;50.780;7.726;2023-06-19T10:20:23;25.40;93.30
11824;DHT22;5969;50.780;7.726;2023-06-19T10:22:52;25.20;93.00
11824;DHT22;5969;50.780;7.726;2023-06-19T10:25:22;25.30;92.90
11824;DHT22;5969;50.780;7.726;2023-06-19T10:27:50;25.10;92.00
11824;DHT22;5969;50.780;7.726;2023-06-19T10:30:19;24.90;92.20
11824;DHT22;5969;50.780;7.726;2023-06-19T10:32:46;24.60;92.50
11824;DHT22;5969;50.780;7.726;2023-06-19T10:35:13;24.70;92.50
11824;DHT22;5969;50.780;7.726;2023-06-19T10:37:40;24.80;92.80
11824;DHT22;5969;50.780;7.726;2023-06-19T10:40:08;24.70;92.90
11824;DHT22;5969;50.780;7.726;2023-06-19T10:42:36;25.00;92.90
11824;DHT22;5969;50.780;7.726;2023-06-19T10:45:06;24.90;93.10
11824;DHT22;5969;50.780;7.726;2023-06-19T10:47:34;25.00;93.10
11824;DHT22;5969;50.780;7.726;2023-06-19T10:50:01;25.00;92.10
11824;DHT22;5969;50.780;7.726;2023-06-19T10:52:28;24.90;92.40
11824;DHT22;5969;50.780;7.726;2023-06-19T10:54:56;25.10;92.30
11824;DHT22;5969;50.780;7.726;2023-06-19T10:57:29;25.40;92.10
11824;DHT22;5969;50.780;7.726;2023-06-19T10:59:56;25.80;91.50
11824;DHT22;5969;50.780;7.726;2023-06-19T11:02:25;26.30;91.00
11824;DHT22;5969;50.780;7.726;2023-06-19T11:04:53;26.50;90.50
11824;DHT22;5969;50.780;7.726;2023-06-19T11:07:22;26.50;90.00
11824;DHT22;5969;50.780;7.726;2023-06-19T11:09:49;26.60;88.00
11824;DHT22;5969;50.780;7.726;2023-06-19T11:12:19;26.30;88.30
11824;DHT22;5969;50.780;7.726;2023-06-19T11:14:47;25.80;87.80
11824;DHT22;5969;50.780;7.726;2023-06-19T11:17:15;25.80;90.00
11824;DHT22;5969;50.780;7.726;2023-06-19T11:19:45;26.10;90.00
11824;DHT22;5969;50.780;7.726;2023-06-19T11:22:12;26.40;88.90
11824;DHT22;5969;50.780;7.726;2023-06-19T11:24:43;26.50;89.00
11824;DHT22;5969;50.780;7.726;2023-06-19T11:27:18;26.50;88.20
11824;DHT22;5969;50.780;7.726;2023-06-19T11:29:45;26.50;88.20
11824;DHT22;5969;50.780;7.726;2023-06-19T11:32:14;26.60;87.00
11824;DHT22;5969;50.780;7.726;2023-06-19T11:34:41;26.80;88.00
11824;DHT22;5969;50.780;7.726;2023-06-19T11:37:16;26.60;87.60
11824;DHT22;5969;50.780;7.726;2023-06-19T11:39:44;26.90;87.60
11824;DHT22;5969;50.780;7.726;2023-06-19T11:42:11;27.00;86.30
11824;DHT22;5969;50.780;7.726;2023-06-19T11:44:53;27.10;85.40
11824;DHT22;5969;50.780;7.726;2023-06-19T11:47:20;27.10;85.50
11824;DHT22;5969;50.780;7.726;2023-06-19T11:49:48;27.20;85.80
11824;DHT22;5969;50.780;7.726;2023-06-19T11:52:16;27.20;85.70
11824;DHT22;5969;50.780;7.726;2023-06-19T11:54:43;27.30;85.50
11824;DHT22;5969;50.780;7.726;2023-06-19T11:57:11;27.30;85.60
11824;DHT22;5969;50.780;7.726;2023-06-19T11:59:38;27.30;84.80
11824;DHT22;5969;50.780;7.726;2023-06-19T12:02:05;26.40;83.60
11824;DHT22;5969;50.780;7.726;2023-06-19T12:04:32;26.40;84.00
11824;DHT22;5969;50.780;7.726;2023-06-19T12:07:00;26.70;84.20
11824;DHT22;5969;50.780;7.726;2023-06-19T12:09:28;27.20;84.10
11824;DHT22;5969;50.780;7.726;2023-06-19T12:11:55;27.50;85.30
11824;DHT22;5969;50.780;7.726;2023-06-19T12:14:22;27.70;84.10
11824;DHT22;5969;50.780;7.726;2023-06-19T12:16:50;28.00;85.30
11824;DHT22;5969;50.780;7.726;2023-06-19T12:19:17;28.00;83.00
11824;DHT22;5969;50.780;7.726;2023-06-19T12:21:44;28.40;82.80
11824;DHT22;5969;50.780;7.726;2023-06-19T12:24:11;28.40;82.00
11824;DHT22;5969;50.780;7.726;2023-06-19T12:26:39;28.20;82.50
11824;DHT22;5969;50.780;7.726;2023-06-19T12:29:07;28.20;83.30
11824;DHT22;5969;50.780;7.726;2023-06-19T12:31:33;28.60;82.80
11824;DHT22;5969;50.780;7.726;2023-06-19T12:34:01;28.70;81.50
11824;DHT22;5969;50.780;7.726;2023-06-19T12:36:28;28.50;80.30
11824;DHT22;5969;50.780;7.726;2023-06-19T12:38:58;28.30;82.30
11824;DHT22;5969;50.780;7.726;2023-06-19T12:41:26;28.30;82.20
11824;DHT22;5969;50.780;7.726;2023-06-19T12:43:54;28.20;83.00
11824;DHT22;5969;50.780;7.726;2023-06-19T12:46:21;28.60;82.00
11824;DHT22;5969;50.780;7.726;2023-06-19T12:48:48;29.00;80.30
11824;DHT22;5969;50.780;7.726;2023-06-19T12:51:16;29.20;79.40
11824;DHT22;5969;50.780;7.726;2023-06-19T12:53:44;29.50;78.90
11824;DHT22;5969;50.780;7.726;2023-06-19T12:56:11;29.10;80.40
11824;DHT22;5969;50.780;7.726;2023-06-19T12:58:38;29.20;80.60
11824;DHT22;5969;50.780;7.726;2023-06-19T13:01:06;29.70;80.40
11824;DHT22;5969;50.780;7.726;2023-06-19T13:03:33;29.90;78.60
11824;DHT22;5969;50.780;7.726;2023-06-19T13:05:59;30.20;79.30
11824;DHT22;5969;50.780;7.726;2023-06-19T13:08:26;30.70;78.40
11824;DHT22;5969;50.780;7.726;2023-06-19T13:10:53;30.70;78.60
11824;DHT22;5969;50.780;7.726;2023-06-19T13:13:20;30.70;78.40
11824;DHT22;5969;50.780;7.726;2023-06-19T13:15:48;29.90;78.90
11824;DHT22;5969;50.780;7.726;2023-06-19T13:18:18;29.60;79.20
11824;DHT22;5969;50.780;7.726;2023-06-19T13:20:45;29.90;78.60
11824;DHT22;5969;50.780;7.726;2023-06-19T13:23:13;29.90;77.90
11824;DHT22;5969;50.780;7.726;2023-06-19T13:25:40;30.20;80.40
11824;DHT22;5969;50.780;7.726;2023-06-19T13:28:07;29.90;77.70
11824;DHT22;5969;50.780;7.726;2023-06-19T13:30:34;30.20;78.60
11824;DHT22;5969;50.780;7.726;2023-06-19T13:33:00;30.40;79.20
11824;DHT22;5969;50.780;7.726;2023-06-19T13:35:31;30.90;77.40
11824;DHT22;5969;50.780;7.726;2023-06-19T13:37:59;31.40;77.20
11824;DHT22;5969;50.780;7.726;2023-06-19T13:40:26;31.50;75.90
11824;DHT22;5969;50.780;7.726;2023-06-19T13:42:53;31.10;76.40
11824;DHT22;5969;50.780;7.726;2023-06-19T13:45:20;31.20;76.20
11824;DHT22;5969;50.780;7.726;2023-06-19T13:47:47;31.70;74.30
11824;DHT22;5969;50.780;7.726;2023-06-19T13:50:14;32.00;74.50
11824;DHT22;5969;50.780;7.726;2023-06-19T13:52:45;32.00;75.20
11824;DHT22;5969;50.780;7.726;2023-06-19T13:55:12;32.40;73.50
11824;DHT22;5969;50.780;7.726;2023-06-19T13:57:40;32.30;73.20
11824;DHT22;5969;50.780;7.726;2023-06-19T14:00:08;32.90;72.80
11824;DHT22;5969;50.780;7.726;2023-06-19T14:02:36;33.80;71.90
11824;DHT22;5969;50.780;7.726;2023-06-19T14:05:04;33.00;71.90
11824;DHT22;5969;50.780;7.726;2023-06-19T14:07:31;32.50;72.90
11824;DHT22;5969;50.780;7.726;2023-06-19T14:10:00;31.90;72.30
11824;DHT22;5969;50.780;7.726;2023-06-19T14:12:27;32.50;74.20
11824;DHT22;5969;50.780;7.726;2023-06-19T14:14:54;34.30;69.90
11824;DHT22;5969;50.780;7.726;2023-06-19T14:17:21;35.30;68.90
11824;DHT22;5969;50.780;7.726;2023-06-19T14:19:48;36.20;67.40
11824;DHT22;5969;50.780;7.726;2023-06-19T14:22:16;36.10;67.10
11824;DHT22;5969;50.780;7.726;2023-06-19T14:24:43;37.40;65.60
11824;DHT22;5969;50.780;7.726;2023-06-19T14:27:11;38.10;64.20
11824;DHT22;5969;50.780;7.726;2023-06-19T14:29:42;39.10;64.70
11824;DHT22;5969;50.780;7.726;2023-06-19T14:32:09;39.80;63.80
11824;DHT22;5969;50.780;7.726;2023-06-19T14:34:36;39.70;63.10
11824;DHT22;5969;50.780;7.726;2023-06-19T14:37:02;41.30;61.30
11824;DHT22;5969;50.780;7.726;2023-06-19T14:39:29;42.10;60.10
11824;DHT22;5969;50.780;7.726;2023-06-19T14:41:56;41.50;58.40
11824;DHT22;5969;50.780;7.726;2023-06-19T14:44:24;41.30;58.60
11824;DHT22;5969;50.780;7.726;2023-06-19T14:46:51;40.70;60.10
11824;DHT22;5969;50.780;7.726;2023-06-19T14:49:20;39.30;61.80
11824;DHT22;5969;50.780;7.726;2023-06-19T14:51:47;37.80;61.50
11824;DHT22;5969;50.780;7.726;2023-06-19T14:54:14;36.40;63.30
11824;DHT22;5969;50.780;7.726;2023-06-19T14:56:43;34.50;65.00
11824;DHT22;5969;50.780;7.726;2023-06-19T14:59:10;33.90;65.90
11824;DHT22;5969;50.780;7.726;2023-06-19T15:01:38;33.20;66.70
11824;DHT22;5969;50.780;7.726;2023-06-19T15:04:05;32.30;68.30
11824;DHT22;5969;50.780;7.726;2023-06-19T15:06:32;31.50;69.60
11824;DHT22;5969;50.780;7.726;2023-06-19T15:08:59;31.60;70.20
11824;DHT22;5969;50.780;7.726;2023-06-19T15:11:26;31.30;70.60
11824;DHT22;5969;50.780;7.726;2023-06-19T15:13:53;31.40;70.60
11824;DHT22;5969;50.780;7.726;2023-06-19T15:16:20;31.10;70.40
11824;DHT22;5969;50.780;7.726;2023-06-19T15:18:49;30.90;71.00
11824;DHT22;5969;50.780;7.726;2023-06-19T15:21:16;31.20;70.70
11824;DHT22;5969;50.780;7.726;2023-06-19T15:23:43;31.50;71.10
11824;DHT22;5969;50.780;7.726;2023-06-19T15:26:13;31.70;69.90
11824;DHT22;5969;50.780;7.726;2023-06-19T15:28:39;32.20;69.90
11824;DHT22;5969;50.780;7.726;2023-06-19T15:31:11;32.80;68.90
11824;DHT22;5969;50.780;7.726;2023-06-19T15:33:39;33.30;69.10
11824;DHT22;5969;50.780;7.726;2023-06-19T15:36:10;33.60;68.10
11824;DHT22;5969;50.780;7.726;2023-06-19T15:38:37;34.80;66.60
11824;DHT22;5969;50.780;7.726;2023-06-19T15:41:04;36.20;65.50
11824;DHT22;5969;50.780;7.726;2023-06-19T15:43:34;37.10;65.00
11824;DHT22;5969;50.780;7.726;2023-06-19T15:46:09;37.90;61.50
11824;DHT22;5969;50.780;7.726;2023-06-19T15:48:41;38.70;61.00